Abbotsford, Canada
Current Conditions -  °F | °C
As of 8:00 AM on Thursday 29 Jan 2015 (Local Time) from CYXX Reporting Station
Few Clouds Few Clouds  
Wind Chill: 34°   Ceiling: Unl
Heat Index: 37°   Visibility: 30mi
Dew Point: 34°   Wind: 5mph
Humidity: 87%   Direction: 10°N
Pressure: 30.39"   Gusts: NA
Location:  49.05°N, 122.33°W
Report Text: CYXX 291600Z 01004KT 30SM FEW075 FEW220 03/01 A3039 RMK AC1CI2 AC TR SLP293
Loading
Personal Weather Stations






























Interactive Weather Map New forecast layout! Learn more

10-Day Weather Forecast

Advertisements
Track Severe Weather on mobile